createdAt,value
2019-05-20T05:11:45.043Z,12.66
2019-05-20T05:21:47.583Z,13.03
2019-05-20T05:31:44.990Z,13.47
2019-05-20T05:41:45.948Z,14.04
2019-05-20T05:51:45.045Z,14.16
2019-05-20T06:01:44.682Z,14.34
2019-05-20T06:11:45.072Z,14.72
2019-05-20T06:21:45.029Z,15.07
2019-05-20T06:31:46.859Z,15.21
2019-05-20T06:41:45.277Z,15.85
2019-05-20T06:51:45.022Z,16.17
2019-05-20T07:01:44.595Z,16.61
2019-05-20T07:11:52.647Z,16.98
2019-05-20T10:00:53.952Z,17.70
2019-05-20T10:10:53.723Z,17.37
2019-05-20T10:20:53.893Z,17.82
2019-05-20T10:30:52.632Z,18.72
2019-05-20T10:40:53.754Z,19.43
2019-05-20T10:50:53.348Z,19.82
2019-05-20T11:01:02.401Z,20.07
2019-05-20T11:10:54.073Z,19.39
2019-05-20T11:20:53.787Z,19.41
2019-05-20T11:30:55.480Z,19.29
2019-05-20T11:40:55.681Z,20.10
2019-05-20T11:50:54.832Z,19.87
2019-05-20T12:00:54.290Z,20.66
2019-05-20T12:10:55.573Z,21.12
2019-05-20T12:20:53.788Z,21.64
2019-05-20T12:30:56.440Z,21.78
2019-05-20T12:40:54.441Z,22.12
2019-05-20T12:50:56.248Z,22.10
2019-05-20T13:00:54.390Z,22.51
2019-05-20T13:10:55.883Z,22.88
2019-05-20T13:20:53.602Z,22.31
2019-05-20T13:30:54.422Z,22.86
2019-05-20T13:40:54.169Z,23.28
2019-05-20T13:50:55.859Z,22.67
2019-05-20T14:00:53.613Z,23.18
2019-05-20T14:11:03.590Z,22.82
2019-05-20T14:20:54.067Z,22.92
2019-05-20T14:30:53.608Z,22.70
2019-05-20T14:50:55.794Z,22.63
2019-05-20T15:00:54.065Z,22.50
2019-05-20T15:10:55.938Z,22.66
2019-05-20T15:20:53.761Z,22.74
2019-05-20T15:30:54.035Z,22.82
